sensor_id;sensor_type;location;lat;lon;timestamp;P1;durP1;ratioP1;P2;durP2;ratioP2
41865;SDS011;27539;43.222;27.558;2023-06-22T00:02:05;5.03;;;2.95;;
41865;SDS011;27539;43.222;27.558;2023-06-22T00:04:30;1.92;;;1.73;;
41865;SDS011;27539;43.222;27.558;2023-06-22T00:06:56;5.32;;;2.45;;
41865;SDS011;27539;43.222;27.558;2023-06-22T00:09:21;3.83;;;2.73;;
41865;SDS011;27539;43.222;27.558;2023-06-22T00:11:47;3.42;;;2.13;;
41865;SDS011;27539;43.222;27.558;2023-06-22T00:14:12;2.35;;;2.13;;
41865;SDS011;27539;43.222;27.558;2023-06-22T00:16:38;5.07;;;2.53;;
41865;SDS011;27539;43.222;27.558;2023-06-22T00:19:03;2.42;;;2.10;;
41865;SDS011;27539;43.222;27.558;2023-06-22T00:21:29;3.95;;;2.78;;
41865;SDS011;27539;43.222;27.558;2023-06-22T00:23:55;3.13;;;2.60;;
41865;SDS011;27539;43.222;27.558;2023-06-22T00:26:22;3.50;;;2.85;;
41865;SDS011;27539;43.222;27.558;2023-06-22T00:28:48;4.60;;;2.60;;
41865;SDS011;27539;43.222;27.558;2023-06-22T00:31:13;2.42;;;1.98;;
41865;SDS011;27539;43.222;27.558;2023-06-22T00:33:39;3.38;;;2.70;;
41865;SDS011;27539;43.222;27.558;2023-06-22T00:36:05;3.72;;;3.25;;
41865;SDS011;27539;43.222;27.558;2023-06-22T00:38:32;5.07;;;2.70;;
41865;SDS011;27539;43.222;27.558;2023-06-22T00:40:58;9.38;;;3.28;;
41865;SDS011;27539;43.222;27.558;2023-06-22T00:43:24;1.60;;;1.50;;
41865;SDS011;27539;43.222;27.558;2023-06-22T00:45:49;3.85;;;3.05;;
41865;SDS011;27539;43.222;27.558;2023-06-22T00:48:15;5.57;;;2.10;;
41865;SDS011;27539;43.222;27.558;2023-06-22T00:50:40;3.33;;;2.45;;
41865;SDS011;27539;43.222;27.558;2023-06-22T00:53:07;2.28;;;2.00;;
41865;SDS011;27539;43.222;27.558;2023-06-22T00:58:02;4.85;;;2.70;;
41865;SDS011;27539;43.222;27.558;2023-06-22T01:00:30;4.40;;;2.75;;
41865;SDS011;27539;43.222;27.558;2023-06-22T01:05:23;4.85;;;2.95;;
41865;SDS011;27539;43.222;27.558;2023-06-22T01:14:03;4.05;;;2.20;;
41865;SDS011;27539;43.222;27.558;2023-06-22T01:16:30;6.22;;;2.08;;
41865;SDS011;27539;43.222;27.558;2023-06-22T01:21:59;2.47;;;1.33;;
41865;SDS011;27539;43.222;27.558;2023-06-22T01:24:27;3.75;;;2.85;;
41865;SDS011;27539;43.222;27.558;2023-06-22T01:29:41;2.50;;;1.75;;
41865;SDS011;27539;43.222;27.558;2023-06-22T01:32:08;5.80;;;2.65;;
41865;SDS011;27539;43.222;27.558;2023-06-22T01:34:36;3.03;;;1.92;;
41865;SDS011;27539;43.222;27.558;2023-06-22T01:37:04;3.00;;;2.17;;
41865;SDS011;27539;43.222;27.558;2023-06-22T01:39:31;4.00;;;2.72;;
41865;SDS011;27539;43.222;27.558;2023-06-22T01:41:57;5.87;;;2.87;;
41865;SDS011;27539;43.222;27.558;2023-06-22T01:44:23;5.20;;;2.40;;
41865;SDS011;27539;43.222;27.558;2023-06-22T01:46:50;4.05;;;3.05;;
41865;SDS011;27539;43.222;27.558;2023-06-22T01:49:17;2.00;;;1.80;;
41865;SDS011;27539;43.222;27.558;2023-06-22T01:51:43;3.08;;;2.58;;
41865;SDS011;27539;43.222;27.558;2023-06-22T01:54:08;5.47;;;2.45;;
41865;SDS011;27539;43.222;27.558;2023-06-22T01:56:34;2.53;;;1.80;;
41865;SDS011;27539;43.222;27.558;2023-06-22T02:01:41;4.88;;;2.15;;
41865;SDS011;27539;43.222;27.558;2023-06-22T02:04:11;6.25;;;2.85;;
41865;SDS011;27539;43.222;27.558;2023-06-22T02:06:43;3.63;;;2.20;;
41865;SDS011;27539;43.222;27.558;2023-06-22T02:09:12;8.50;;;1.95;;
41865;SDS011;27539;43.222;27.558;2023-06-22T02:11:42;3.17;;;2.03;;
41865;SDS011;27539;43.222;27.558;2023-06-22T02:14:10;5.53;;;2.35;;
41865;SDS011;27539;43.222;27.558;2023-06-22T02:16:38;2.90;;;2.60;;
41865;SDS011;27539;43.222;27.558;2023-06-22T02:19:05;2.88;;;1.80;;
41865;SDS011;27539;43.222;27.558;2023-06-22T02:21:31;2.08;;;1.88;;
41865;SDS011;27539;43.222;27.558;2023-06-22T02:23:57;1.98;;;1.83;;
41865;SDS011;27539;43.222;27.558;2023-06-22T02:26:23;1.60;;;1.50;;
41865;SDS011;27539;43.222;27.558;2023-06-22T02:31:15;2.47;;;2.05;;
41865;SDS011;27539;43.222;27.558;2023-06-22T02:33:41;2.60;;;2.28;;
41865;SDS011;27539;43.222;27.558;2023-06-22T02:36:06;3.25;;;2.53;;
41865;SDS011;27539;43.222;27.558;2023-06-22T02:38:34;2.40;;;1.52;;
41865;SDS011;27539;43.222;27.558;2023-06-22T02:41:01;4.70;;;2.40;;
41865;SDS011;27539;43.222;27.558;2023-06-22T02:43:27;3.93;;;2.27;;
41865;SDS011;27539;43.222;27.558;2023-06-22T02:45:53;3.17;;;2.03;;
41865;SDS011;27539;43.222;27.558;2023-06-22T02:48:19;1.88;;;1.65;;
41865;SDS011;27539;43.222;27.558;2023-06-22T02:50:44;6.38;;;2.35;;
41865;SDS011;27539;43.222;27.558;2023-06-22T02:53:09;3.22;;;2.55;;
41865;SDS011;27539;43.222;27.558;2023-06-22T02:55:35;5.88;;;2.65;;
41865;SDS011;27539;43.222;27.558;2023-06-22T02:58:01;2.92;;;2.42;;
41865;SDS011;27539;43.222;27.558;2023-06-22T03:00:29;1.77;;;1.58;;
41865;SDS011;27539;43.222;27.558;2023-06-22T03:02:56;4.28;;;2.05;;
41865;SDS011;27539;43.222;27.558;2023-06-22T03:05:22;4.43;;;2.85;;
41865;SDS011;27539;43.222;27.558;2023-06-22T03:07:48;2.80;;;2.10;;
41865;SDS011;27539;43.222;27.558;2023-06-22T03:10:14;3.37;;;2.00;;
41865;SDS011;27539;43.222;27.558;2023-06-22T03:12:41;3.53;;;2.97;;
41865;SDS011;27539;43.222;27.558;2023-06-22T03:15:07;3.00;;;2.60;;
41865;SDS011;27539;43.222;27.558;2023-06-22T03:17:34;3.28;;;1.98;;
41865;SDS011;27539;43.222;27.558;2023-06-22T03:20:04;4.63;;;2.22;;
41865;SDS011;27539;43.222;27.558;2023-06-22T03:22:39;3.22;;;2.40;;
41865;SDS011;27539;43.222;27.558;2023-06-22T03:25:06;3.15;;;2.22;;
41865;SDS011;27539;43.222;27.558;2023-06-22T03:27:36;2.25;;;1.70;;
41865;SDS011;27539;43.222;27.558;2023-06-22T03:30:01;24.55;;;2.80;;
41865;SDS011;27539;43.222;27.558;2023-06-22T03:32:27;8.38;;;2.50;;
41865;SDS011;27539;43.222;27.558;2023-06-22T03:34:53;2.28;;;1.75;;
41865;SDS011;27539;43.222;27.558;2023-06-22T03:37:18;3.93;;;2.53;;
41865;SDS011;27539;43.222;27.558;2023-06-22T03:39:44;3.88;;;2.25;;
41865;SDS011;27539;43.222;27.558;2023-06-22T03:42:09;3.03;;;1.92;;
41865;SDS011;27539;43.222;27.558;2023-06-22T03:44:35;2.30;;;1.85;;
41865;SDS011;27539;43.222;27.558;2023-06-22T03:47:01;2.33;;;2.07;;
41865;SDS011;27539;43.222;27.558;2023-06-22T03:49:29;3.95;;;2.22;;
41865;SDS011;27539;43.222;27.558;2023-06-22T03:51:54;4.88;;;3.40;;
41865;SDS011;27539;43.222;27.558;2023-06-22T03:54:20;8.73;;;3.78;;
41865;SDS011;27539;43.222;27.558;2023-06-22T03:56:45;2.55;;;2.22;;
41865;SDS011;27539;43.222;27.558;2023-06-22T03:59:11;4.35;;;3.20;;
41865;SDS011;27539;43.222;27.558;2023-06-22T04:01:36;7.25;;;2.13;;
41865;SDS011;27539;43.222;27.558;2023-06-22T04:04:02;4.15;;;2.40;;
41865;SDS011;27539;43.222;27.558;2023-06-22T04:06:27;4.27;;;2.40;;
41865;SDS011;27539;43.222;27.558;2023-06-22T04:08:53;3.13;;;1.83;;
41865;SDS011;27539;43.222;27.558;2023-06-22T04:11:18;1.88;;;1.77;;
41865;SDS011;27539;43.222;27.558;2023-06-22T04:13:44;4.50;;;2.33;;
41865;SDS011;27539;43.222;27.558;2023-06-22T04:16:09;4.25;;;1.88;;
41865;SDS011;27539;43.222;27.558;2023-06-22T04:18:35;4.88;;;2.72;;
41865;SDS011;27539;43.222;27.558;2023-06-22T04:21:01;4.43;;;1.83;;
41865;SDS011;27539;43.222;27.558;2023-06-22T04:23:27;6.55;;;2.92;;
41865;SDS011;27539;43.222;27.558;2023-06-22T04:25:53;4.57;;;2.17;;
41865;SDS011;27539;43.222;27.558;2023-06-22T04:28:18;2.13;;;1.77;;
41865;SDS011;27539;43.222;27.558;2023-06-22T04:30:44;3.87;;;2.20;;
41865;SDS011;27539;43.222;27.558;2023-06-22T04:33:13;1.70;;;1.58;;
41865;SDS011;27539;43.222;27.558;2023-06-22T04:35:39;1.98;;;1.55;;
41865;SDS011;27539;43.222;27.558;2023-06-22T04:38:08;5.43;;;2.17;;
41865;SDS011;27539;43.222;27.558;2023-06-22T04:40:33;3.20;;;1.80;;
41865;SDS011;27539;43.222;27.558;2023-06-22T04:42:59;3.00;;;2.00;;
41865;SDS011;27539;43.222;27.558;2023-06-22T04:45:27;1.67;;;1.48;;
41865;SDS011;27539;43.222;27.558;2023-06-22T04:47:56;1.80;;;1.70;;
41865;SDS011;27539;43.222;27.558;2023-06-22T04:50:22;1.60;;;1.50;;
41865;SDS011;27539;43.222;27.558;2023-06-22T04:52:48;4.05;;;2.78;;
41865;SDS011;27539;43.222;27.558;2023-06-22T04:55:15;4.47;;;2.25;;
41865;SDS011;27539;43.222;27.558;2023-06-22T04:57:48;2.28;;;1.80;;
41865;SDS011;27539;43.222;27.558;2023-06-22T05:00:23;3.17;;;1.85;;
41865;SDS011;27539;43.222;27.558;2023-06-22T05:02:48;2.47;;;2.28;;
41865;SDS011;27539;43.222;27.558;2023-06-22T05:05:14;1.70;;;1.42;;
41865;SDS011;27539;43.222;27.558;2023-06-22T05:07:46;3.00;;;1.83;;
41865;SDS011;27539;43.222;27.558;2023-06-22T05:10:15;3.72;;;1.50;;
41865;SDS011;27539;43.222;27.558;2023-06-22T05:12:41;2.43;;;1.90;;
41865;SDS011;27539;43.222;27.558;2023-06-22T05:15:07;3.40;;;2.20;;
41865;SDS011;27539;43.222;27.558;2023-06-22T05:17:33;2.22;;;1.67;;
41865;SDS011;27539;43.222;27.558;2023-06-22T05:20:00;4.07;;;2.17;;
41865;SDS011;27539;43.222;27.558;2023-06-22T05:22:26;7.72;;;2.35;;
41865;SDS011;27539;43.222;27.558;2023-06-22T05:24:52;3.63;;;2.50;;
41865;SDS011;27539;43.222;27.558;2023-06-22T05:27:17;2.47;;;1.87;;
41865;SDS011;27539;43.222;27.558;2023-06-22T05:29:43;2.10;;;1.50;;
41865;SDS011;27539;43.222;27.558;2023-06-22T05:32:08;4.57;;;2.60;;
41865;SDS011;27539;43.222;27.558;2023-06-22T05:34:34;3.30;;;2.80;;
41865;SDS011;27539;43.222;27.558;2023-06-22T05:36:59;2.23;;;1.60;;
41865;SDS011;27539;43.222;27.558;2023-06-22T05:39:25;3.20;;;1.67;;
41865;SDS011;27539;43.222;27.558;2023-06-22T05:41:51;2.20;;;1.57;;
41865;SDS011;27539;43.222;27.558;2023-06-22T05:44:16;2.67;;;1.90;;
41865;SDS011;27539;43.222;27.558;2023-06-22T05:46:42;2.50;;;2.30;;
41865;SDS011;27539;43.222;27.558;2023-06-22T05:49:13;3.50;;;2.03;;
41865;SDS011;27539;43.222;27.558;2023-06-22T05:51:39;3.60;;;2.05;;
41865;SDS011;27539;43.222;27.558;2023-06-22T05:54:05;1.73;;;1.30;;
41865;SDS011;27539;43.222;27.558;2023-06-22T05:56:31;3.17;;;1.90;;
41865;SDS011;27539;43.222;27.558;2023-06-22T05:58:56;1.50;;;1.20;;
41865;SDS011;27539;43.222;27.558;2023-06-22T06:01:22;1.50;;;1.40;;
41865;SDS011;27539;43.222;27.558;2023-06-22T06:03:47;2.00;;;1.40;;
41865;SDS011;27539;43.222;27.558;2023-06-22T06:08:40;2.22;;;1.95;;
41865;SDS011;27539;43.222;27.558;2023-06-22T06:11:06;2.10;;;1.60;;
41865;SDS011;27539;43.222;27.558;2023-06-22T06:13:31;2.93;;;2.10;;
41865;SDS011;27539;43.222;27.558;2023-06-22T06:15:57;1.80;;;1.40;;
41865;SDS011;27539;43.222;27.558;2023-06-22T06:18:22;2.63;;;1.73;;
41865;SDS011;27539;43.222;27.558;2023-06-22T06:20:48;2.20;;;2.00;;
41865;SDS011;27539;43.222;27.558;2023-06-22T06:23:14;1.60;;;1.30;;
41865;SDS011;27539;43.222;27.558;2023-06-22T06:25:39;2.00;;;1.80;;
41865;SDS011;27539;43.222;27.558;2023-06-22T06:28:05;1.70;;;1.33;;
41865;SDS011;27539;43.222;27.558;2023-06-22T06:30:30;5.40;;;1.33;;
41865;SDS011;27539;43.222;27.558;2023-06-22T06:32:56;2.60;;;1.67;;
41865;SDS011;27539;43.222;27.558;2023-06-22T06:35:22;3.07;;;1.27;;
41865;SDS011;27539;43.222;27.558;2023-06-22T06:37:49;1.77;;;0.87;;
41865;SDS011;27539;43.222;27.558;2023-06-22T06:40:15;1.13;;;1.02;;
41865;SDS011;27539;43.222;27.558;2023-06-22T06:42:43;1.85;;;1.30;;
41865;SDS011;27539;43.222;27.558;2023-06-22T06:45:20;1.30;;;1.20;;
41865;SDS011;27539;43.222;27.558;2023-06-22T06:47:48;1.60;;;1.27;;
41865;SDS011;27539;43.222;27.558;2023-06-22T06:50:13;2.40;;;1.27;;
41865;SDS011;27539;43.222;27.558;2023-06-22T06:52:39;1.90;;;1.37;;
41865;SDS011;27539;43.222;27.558;2023-06-22T06:55:05;1.30;;;1.20;;
41865;SDS011;27539;43.222;27.558;2023-06-22T06:57:33;1.23;;;0.98;;
41865;SDS011;27539;43.222;27.558;2023-06-22T06:59:59;2.43;;;1.70;;
41865;SDS011;27539;43.222;27.558;2023-06-22T07:02:25;2.00;;;1.35;;
41865;SDS011;27539;43.222;27.558;2023-06-22T07:04:52;2.83;;;1.05;;
41865;SDS011;27539;43.222;27.558;2023-06-22T07:07:20;1.80;;;1.08;;
41865;SDS011;27539;43.222;27.558;2023-06-22T07:09:45;1.33;;;1.13;;
41865;SDS011;27539;43.222;27.558;2023-06-22T07:12:11;1.37;;;0.93;;
41865;SDS011;27539;43.222;27.558;2023-06-22T07:14:36;1.83;;;1.43;;
41865;SDS011;27539;43.222;27.558;2023-06-22T07:17:02;2.50;;;1.40;;
41865;SDS011;27539;43.222;27.558;2023-06-22T07:19:27;3.87;;;2.10;;
41865;SDS011;27539;43.222;27.558;2023-06-22T07:21:53;0.80;;;0.80;;
41865;SDS011;27539;43.222;27.558;2023-06-22T07:24:20;1.25;;;1.17;;
41865;SDS011;27539;43.222;27.558;2023-06-22T07:26:47;1.35;;;1.00;;
41865;SDS011;27539;43.222;27.558;2023-06-22T07:29:13;2.05;;;1.48;;
41865;SDS011;27539;43.222;27.558;2023-06-22T07:31:39;1.42;;;1.27;;
41865;SDS011;27539;43.222;27.558;2023-06-22T07:34:06;0.85;;;0.80;;
41865;SDS011;27539;43.222;27.558;2023-06-22T07:36:31;1.07;;;0.97;;
41865;SDS011;27539;43.222;27.558;2023-06-22T07:38:57;1.00;;;0.90;;
41865;SDS011;27539;43.222;27.558;2023-06-22T07:41:22;1.00;;;0.70;;
41865;SDS011;27539;43.222;27.558;2023-06-22T07:43:48;2.90;;;1.23;;
41865;SDS011;27539;43.222;27.558;2023-06-22T07:46:13;1.17;;;0.80;;
41865;SDS011;27539;43.222;27.558;2023-06-22T07:48:39;1.07;;;0.97;;
41865;SDS011;27539;43.222;27.558;2023-06-22T07:51:06;0.70;;;0.68;;
41865;SDS011;27539;43.222;27.558;2023-06-22T07:53:32;1.20;;;1.10;;
41865;SDS011;27539;43.222;27.558;2023-06-22T07:55:57;2.13;;;1.67;;
41865;SDS011;27539;43.222;27.558;2023-06-22T07:58:23;0.97;;;0.90;;
41865;SDS011;27539;43.222;27.558;2023-06-22T08:00:48;1.07;;;0.97;;
41865;SDS011;27539;43.222;27.558;2023-06-22T08:03:14;0.77;;;0.60;;
41865;SDS011;27539;43.222;27.558;2023-06-22T08:05:40;2.40;;;1.40;;
41865;SDS011;27539;43.222;27.558;2023-06-22T08:08:05;1.43;;;1.20;;
41865;SDS011;27539;43.222;27.558;2023-06-22T08:10:31;0.90;;;0.90;;
41865;SDS011;27539;43.222;27.558;2023-06-22T08:12:56;0.43;;;0.43;;
41865;SDS011;27539;43.222;27.558;2023-06-22T08:15:22;2.20;;;0.90;;
41865;SDS011;27539;43.222;27.558;2023-06-22T08:17:47;1.97;;;1.10;;
41865;SDS011;27539;43.222;27.558;2023-06-22T08:20:13;0.63;;;0.60;;
41865;SDS011;27539;43.222;27.558;2023-06-22T08:22:39;4.13;;;0.85;;
41865;SDS011;27539;43.222;27.558;2023-06-22T08:27:31;1.35;;;0.85;;
41865;SDS011;27539;43.222;27.558;2023-06-22T08:29:58;0.90;;;0.82;;
41865;SDS011;27539;43.222;27.558;2023-06-22T08:32:27;1.10;;;1.10;;
41865;SDS011;27539;43.222;27.558;2023-06-22T08:34:54;0.93;;;0.90;;
41865;SDS011;27539;43.222;27.558;2023-06-22T08:37:20;3.13;;;0.88;;
41865;SDS011;27539;43.222;27.558;2023-06-22T08:39:48;2.45;;;1.17;;
41865;SDS011;27539;43.222;27.558;2023-06-22T08:42:15;1.13;;;1.02;;
41865;SDS011;27539;43.222;27.558;2023-06-22T08:44:40;1.43;;;1.07;;
41865;SDS011;27539;43.222;27.558;2023-06-22T08:47:06;0.60;;;0.60;;
41865;SDS011;27539;43.222;27.558;2023-06-22T08:49:31;1.10;;;0.97;;
41865;SDS011;27539;43.222;27.558;2023-06-22T08:51:57;2.70;;;1.03;;
41865;SDS011;27539;43.222;27.558;2023-06-22T08:54:22;0.97;;;0.80;;
41865;SDS011;27539;43.222;27.558;2023-06-22T08:56:48;2.83;;;1.27;;
41865;SDS011;27539;43.222;27.558;2023-06-22T08:59:13;0.93;;;0.80;;
41865;SDS011;27539;43.222;27.558;2023-06-22T09:01:39;6.07;;;1.17;;
41865;SDS011;27539;43.222;27.558;2023-06-22T09:04:04;1.47;;;0.87;;
41865;SDS011;27539;43.222;27.558;2023-06-22T09:06:31;1.27;;;1.17;;
41865;SDS011;27539;43.222;27.558;2023-06-22T09:08:57;1.60;;;1.00;;
41865;SDS011;27539;43.222;27.558;2023-06-22T09:11:24;0.70;;;0.68;;
41865;SDS011;27539;43.222;27.558;2023-06-22T09:13:50;1.90;;;1.23;;
41865;SDS011;27539;43.222;27.558;2023-06-22T09:18:42;0.52;;;0.52;;
41865;SDS011;27539;43.222;27.558;2023-06-22T09:21:08;0.93;;;0.67;;
41865;SDS011;27539;43.222;27.558;2023-06-22T09:23:33;0.93;;;0.63;;
41865;SDS011;27539;43.222;27.558;2023-06-22T09:25:59;0.60;;;0.60;;
41865;SDS011;27539;43.222;27.558;2023-06-22T09:28:24;0.80;;;0.80;;
41865;SDS011;27539;43.222;27.558;2023-06-22T09:30:50;1.23;;;0.90;;
41865;SDS011;27539;43.222;27.558;2023-06-22T09:33:16;1.23;;;0.97;;
41865;SDS011;27539;43.222;27.558;2023-06-22T09:35:44;2.20;;;1.08;;
41865;SDS011;27539;43.222;27.558;2023-06-22T09:38:10;0.67;;;0.67;;
41865;SDS011;27539;43.222;27.558;2023-06-22T09:40:35;0.90;;;0.83;;
41865;SDS011;27539;43.222;27.558;2023-06-22T09:43:05;3.95;;;1.08;;
41865;SDS011;27539;43.222;27.558;2023-06-22T09:45:30;1.40;;;1.00;;
41865;SDS011;27539;43.222;27.558;2023-06-22T09:47:56;1.30;;;0.87;;
41865;SDS011;27539;43.222;27.558;2023-06-22T09:50:21;1.07;;;0.90;;
41865;SDS011;27539;43.222;27.558;2023-06-22T09:52:47;3.40;;;1.10;;
41865;SDS011;27539;43.222;27.558;2023-06-22T09:55:15;3.03;;;1.67;;
41865;SDS011;27539;43.222;27.558;2023-06-22T09:57:41;1.13;;;1.07;;
41865;SDS011;27539;43.222;27.558;2023-06-22T10:00:07;1.97;;;1.23;;
41865;SDS011;27539;43.222;27.558;2023-06-22T10:02:38;0.73;;;0.73;;
41865;SDS011;27539;43.222;27.558;2023-06-22T10:05:04;3.20;;;1.73;;
41865;SDS011;27539;43.222;27.558;2023-06-22T10:07:29;0.90;;;0.87;;
41865;SDS011;27539;43.222;27.558;2023-06-22T10:09:55;0.77;;;0.77;;
41865;SDS011;27539;43.222;27.558;2023-06-22T10:12:20;1.20;;;1.10;;
41865;SDS011;27539;43.222;27.558;2023-06-22T10:14:46;1.60;;;0.90;;
41865;SDS011;27539;43.222;27.558;2023-06-22T10:17:11;1.07;;;1.00;;
41865;SDS011;27539;43.222;27.558;2023-06-22T10:19:37;0.97;;;0.70;;
41865;SDS011;27539;43.222;27.558;2023-06-22T10:22:04;1.15;;;1.10;;
41865;SDS011;27539;43.222;27.558;2023-06-22T10:24:30;1.75;;;1.05;;
41865;SDS011;27539;43.222;27.558;2023-06-22T10:26:55;1.13;;;0.87;;
41865;SDS011;27539;43.222;27.558;2023-06-22T10:29:21;1.40;;;1.30;;
41865;SDS011;27539;43.222;27.558;2023-06-22T10:31:46;2.17;;;1.00;;
41865;SDS011;27539;43.222;27.558;2023-06-22T10:34:12;2.33;;;1.53;;
41865;SDS011;27539;43.222;27.558;2023-06-22T10:36:38;0.90;;;0.70;;
41865;SDS011;27539;43.222;27.558;2023-06-22T10:39:04;0.93;;;0.93;;
41865;SDS011;27539;43.222;27.558;2023-06-22T10:41:29;1.37;;;1.00;;
41865;SDS011;27539;43.222;27.558;2023-06-22T10:43:55;1.08;;;0.98;;
41865;SDS011;27539;43.222;27.558;2023-06-22T10:46:21;1.05;;;0.82;;
41865;SDS011;27539;43.222;27.558;2023-06-22T10:48:48;1.00;;;0.55;;
41865;SDS011;27539;43.222;27.558;2023-06-22T10:51:14;1.00;;;0.80;;
41865;SDS011;27539;43.222;27.558;2023-06-22T10:53:39;0.97;;;0.87;;
41865;SDS011;27539;43.222;27.558;2023-06-22T10:56:05;0.93;;;0.80;;
41865;SDS011;27539;43.222;27.558;2023-06-22T10:58:30;1.00;;;0.90;;
41865;SDS011;27539;43.222;27.558;2023-06-22T11:00:56;0.73;;;0.73;;
41865;SDS011;27539;43.222;27.558;2023-06-22T11:03:21;1.40;;;1.30;;
41865;SDS011;27539;43.222;27.558;2023-06-22T11:05:47;0.83;;;0.80;;
41865;SDS011;27539;43.222;27.558;2023-06-22T11:08:13;1.02;;;0.93;;
41865;SDS011;27539;43.222;27.558;2023-06-22T11:10:38;0.57;;;0.57;;
41865;SDS011;27539;43.222;27.558;2023-06-22T11:13:03;0.87;;;0.87;;
41865;SDS011;27539;43.222;27.558;2023-06-22T11:15:30;1.13;;;1.10;;
41865;SDS011;27539;43.222;27.558;2023-06-22T11:17:56;0.60;;;0.60;;
41865;SDS011;27539;43.222;27.558;2023-06-22T11:20:21;0.80;;;0.80;;
41865;SDS011;27539;43.222;27.558;2023-06-22T11:22:47;0.60;;;0.60;;
41865;SDS011;27539;43.222;27.558;2023-06-22T11:25:12;0.90;;;0.90;;
41865;SDS011;27539;43.222;27.558;2023-06-22T11:27:37;0.53;;;0.53;;
41865;SDS011;27539;43.222;27.558;2023-06-22T11:30:03;1.67;;;0.90;;
41865;SDS011;27539;43.222;27.558;2023-06-22T11:32:29;1.23;;;0.93;;
41865;SDS011;27539;43.222;27.558;2023-06-22T11:34:55;0.80;;;0.73;;
41865;SDS011;27539;43.222;27.558;2023-06-22T11:37:20;0.80;;;0.80;;
41865;SDS011;27539;43.222;27.558;2023-06-22T11:39:46;0.80;;;0.80;;
41865;SDS011;27539;43.222;27.558;2023-06-22T11:42:11;0.87;;;0.80;;
41865;SDS011;27539;43.222;27.558;2023-06-22T11:44:37;1.17;;;0.97;;
41865;SDS011;27539;43.222;27.558;2023-06-22T11:47:02;1.30;;;1.05;;
41865;SDS011;27539;43.222;27.558;2023-06-22T11:49:32;3.72;;;0.60;;
41865;SDS011;27539;43.222;27.558;2023-06-22T11:51:57;0.90;;;0.82;;
41865;SDS011;27539;43.222;27.558;2023-06-22T11:54:23;0.67;;;0.53;;
41865;SDS011;27539;43.222;27.558;2023-06-22T11:56:48;2.10;;;1.10;;
41865;SDS011;27539;43.222;27.558;2023-06-22T11:59:14;0.90;;;0.90;;
41865;SDS011;27539;43.222;27.558;2023-06-22T12:01:39;0.90;;;0.73;;
41865;SDS011;27539;43.222;27.558;2023-06-22T12:04:05;2.13;;;1.07;;
41865;SDS011;27539;43.222;27.558;2023-06-22T12:06:33;1.20;;;1.07;;
41865;SDS011;27539;43.222;27.558;2023-06-22T12:09:03;1.50;;;0.95;;
41865;SDS011;27539;43.222;27.558;2023-06-22T12:11:29;1.02;;;0.90;;
41865;SDS011;27539;43.222;27.558;2023-06-22T12:13:55;0.57;;;0.53;;
41865;SDS011;27539;43.222;27.558;2023-06-22T12:16:20;0.77;;;0.60;;
41865;SDS011;27539;43.222;27.558;2023-06-22T12:18:47;0.85;;;0.85;;
41865;SDS011;27539;43.222;27.558;2023-06-22T12:21:12;1.38;;;1.02;;
41865;SDS011;27539;43.222;27.558;2023-06-22T12:23:38;1.27;;;1.10;;
41865;SDS011;27539;43.222;27.558;2023-06-22T12:26:03;0.93;;;0.93;;
41865;SDS011;27539;43.222;27.558;2023-06-22T12:28:29;2.33;;;1.40;;
41865;SDS011;27539;43.222;27.558;2023-06-22T12:30:54;1.27;;;1.17;;
41865;SDS011;27539;43.222;27.558;2023-06-22T12:33:19;1.57;;;1.30;;
41865;SDS011;27539;43.222;27.558;2023-06-22T12:35:45;1.20;;;1.10;;
41865;SDS011;27539;43.222;27.558;2023-06-22T12:38:11;1.80;;;1.37;;
41865;SDS011;27539;43.222;27.558;2023-06-22T12:40:36;1.30;;;1.20;;
41865;SDS011;27539;43.222;27.558;2023-06-22T12:43:02;1.07;;;1.07;;
41865;SDS011;27539;43.222;27.558;2023-06-22T12:45:27;3.47;;;1.97;;
41865;SDS011;27539;43.222;27.558;2023-06-22T12:47:56;4.07;;;1.63;;
41865;SDS011;27539;43.222;27.558;2023-06-22T12:50:22;1.77;;;1.42;;
41865;SDS011;27539;43.222;27.558;2023-06-22T12:52:48;1.40;;;1.30;;
41865;SDS011;27539;43.222;27.558;2023-06-22T12:55:13;1.77;;;1.63;;
41865;SDS011;27539;43.222;27.558;2023-06-22T12:57:39;1.43;;;1.33;;
41865;SDS011;27539;43.222;27.558;2023-06-22T13:00:04;2.30;;;1.23;;
41865;SDS011;27539;43.222;27.558;2023-06-22T13:02:32;1.35;;;1.25;;
41865;SDS011;27539;43.222;27.558;2023-06-22T13:04:58;1.30;;;1.10;;
41865;SDS011;27539;43.222;27.558;2023-06-22T13:07:23;1.63;;;1.53;;
41865;SDS011;27539;43.222;27.558;2023-06-22T13:09:49;1.93;;;1.40;;
41865;SDS011;27539;43.222;27.558;2023-06-22T13:12:16;2.28;;;1.67;;
41865;SDS011;27539;43.222;27.558;2023-06-22T13:14:42;1.85;;;1.42;;
41865;SDS011;27539;43.222;27.558;2023-06-22T13:17:08;3.40;;;1.67;;
41865;SDS011;27539;43.222;27.558;2023-06-22T13:19:34;2.43;;;1.57;;
41865;SDS011;27539;43.222;27.558;2023-06-22T13:21:59;5.60;;;2.77;;
41865;SDS011;27539;43.222;27.558;2023-06-22T13:24:25;3.00;;;1.63;;
41865;SDS011;27539;43.222;27.558;2023-06-22T13:26:51;1.27;;;1.17;;
41865;SDS011;27539;43.222;27.558;2023-06-22T13:29:16;1.90;;;1.27;;
41865;SDS011;27539;43.222;27.558;2023-06-22T13:31:42;2.37;;;1.60;;
41865;SDS011;27539;43.222;27.558;2023-06-22T13:34:07;3.93;;;2.23;;
41865;SDS011;27539;43.222;27.558;2023-06-22T13:36:32;2.30;;;1.57;;
41865;SDS011;27539;43.222;27.558;2023-06-22T13:38:58;1.30;;;1.03;;
41865;SDS011;27539;43.222;27.558;2023-06-22T13:41:24;1.30;;;1.20;;
41865;SDS011;27539;43.222;27.558;2023-06-22T13:43:49;1.87;;;1.60;;
41865;SDS011;27539;43.222;27.558;2023-06-22T13:46:15;1.50;;;1.20;;
41865;SDS011;27539;43.222;27.558;2023-06-22T13:48:40;1.67;;;1.17;;
41865;SDS011;27539;43.222;27.558;2023-06-22T13:51:05;1.57;;;1.23;;
41865;SDS011;27539;43.222;27.558;2023-06-22T13:53:31;2.90;;;1.90;;
41865;SDS011;27539;43.222;27.558;2023-06-22T13:55:56;1.87;;;1.53;;
41865;SDS011;27539;43.222;27.558;2023-06-22T13:58:22;1.45;;;1.30;;
41865;SDS011;27539;43.222;27.558;2023-06-22T14:00:48;2.90;;;1.23;;
41865;SDS011;27539;43.222;27.558;2023-06-22T14:03:14;1.45;;;1.10;;
41865;SDS011;27539;43.222;27.558;2023-06-22T14:05:41;1.60;;;1.10;;
41865;SDS011;27539;43.222;27.558;2023-06-22T14:08:07;1.70;;;1.23;;
41865;SDS011;27539;43.222;27.558;2023-06-22T14:10:36;3.37;;;2.07;;
41865;SDS011;27539;43.222;27.558;2023-06-22T14:13:01;1.60;;;1.25;;
41865;SDS011;27539;43.222;27.558;2023-06-22T14:15:27;3.93;;;1.47;;
41865;SDS011;27539;43.222;27.558;2023-06-22T14:17:52;1.70;;;1.50;;
41865;SDS011;27539;43.222;27.558;2023-06-22T14:20:17;2.00;;;1.30;;
41865;SDS011;27539;43.222;27.558;2023-06-22T14:22:43;2.17;;;1.47;;
41865;SDS011;27539;43.222;27.558;2023-06-22T14:25:08;1.73;;;1.23;;
41865;SDS011;27539;43.222;27.558;2023-06-22T14:27:34;3.67;;;1.40;;
41865;SDS011;27539;43.222;27.558;2023-06-22T14:29:59;0.73;;;0.63;;
41865;SDS011;27539;43.222;27.558;2023-06-22T14:32:27;1.30;;;1.20;;
41865;SDS011;27539;43.222;27.558;2023-06-22T14:34:54;2.50;;;1.50;;
41865;SDS011;27539;43.222;27.558;2023-06-22T14:37:20;3.47;;;1.43;;
41865;SDS011;27539;43.222;27.558;2023-06-22T14:39:45;2.87;;;1.83;;
41865;SDS011;27539;43.222;27.558;2023-06-22T14:42:11;1.67;;;1.57;;
41865;SDS011;27539;43.222;27.558;2023-06-22T14:44:36;2.27;;;1.97;;
41865;SDS011;27539;43.222;27.558;2023-06-22T14:47:01;5.53;;;1.90;;
41865;SDS011;27539;43.222;27.558;2023-06-22T14:49:27;2.23;;;1.53;;
41865;SDS011;27539;43.222;27.558;2023-06-22T14:51:52;1.10;;;1.00;;
41865;SDS011;27539;43.222;27.558;2023-06-22T14:54:18;1.37;;;1.23;;
41865;SDS011;27539;43.222;27.558;2023-06-22T14:56:43;1.60;;;1.50;;